createdAt,value
2022-08-05T00:00:17.649Z,93608.88
2022-08-05T00:02:51.525Z,93602.00
2022-08-05T00:06:03.279Z,93603.31
2022-08-05T00:08:30.848Z,93602.03
2022-08-05T00:11:01.518Z,93606.91
2022-08-05T00:13:39.125Z,93601.59
2022-08-05T00:16:10.867Z,93600.50
2022-08-05T00:18:44.523Z,93595.72
2022-08-05T00:21:12.525Z,93595.16
2022-08-05T00:23:46.196Z,93598.09
2022-08-05T00:26:16.378Z,93593.84
2022-08-05T00:28:45.735Z,93597.53
2022-08-05T00:31:13.196Z,93596.25
2022-08-05T00:34:53.754Z,93592.84
2022-08-05T00:37:11.542Z,93590.53
2022-08-05T00:39:15.779Z,93589.47
2022-08-05T00:41:55.278Z,93584.75
2022-08-05T00:44:30.927Z,93591.34
2022-08-05T00:47:01.852Z,93586.28
2022-08-05T00:49:32.670Z,93590.50
2022-08-05T00:52:00.602Z,93587.59
2022-08-05T00:54:29.982Z,93590.25
2022-08-05T00:56:57.430Z,93586.78
2022-08-05T00:59:25.011Z,93592.34
2022-08-05T01:01:52.212Z,93591.06
2022-08-05T01:04:20.263Z,93587.34
2022-08-05T01:06:57.287Z,93586.28
2022-08-05T01:09:26.169Z,93591.87
2022-08-05T01:12:09.100Z,93592.91
2022-08-05T01:14:48.974Z,93589.22
2022-08-05T01:17:16.866Z,93583.94
2022-08-05T01:20:00.949Z,93590.28
2022-08-05T01:22:48.729Z,93590.81
2022-08-05T01:25:40.118Z,93585.50
2022-08-05T01:28:21.868Z,93588.97
2022-08-05T01:31:15.497Z,93582.53
2022-08-05T01:33:49.186Z,93583.31
2022-08-05T01:36:20.943Z,93588.56
2022-08-05T01:38:49.802Z,93585.19
2022-08-05T01:41:20.946Z,93582.31
2022-08-05T01:43:50.178Z,93584.94
2022-08-05T01:46:42.376Z,93582.56
2022-08-05T01:49:23.381Z,93578.63
2022-08-05T01:51:54.269Z,93580.72
2022-08-05T01:54:25.636Z,93582.56
2022-08-05T01:58:11.971Z,93582.06
2022-08-05T01:59:42.506Z,93580.19
2022-08-05T02:02:15.981Z,93586.22
2022-08-05T02:04:46.102Z,93580.56
2022-08-05T02:07:22.203Z,93573.69
2022-08-05T02:09:51.234Z,93578.00
2022-08-05T02:12:34.835Z,93580.38
2022-08-05T02:15:12.956Z,93583.25
2022-08-05T02:18:30.791Z,93582.50
2022-08-05T02:20:46.950Z,93589.56
2022-08-05T02:23:14.977Z,93575.31
2022-08-05T02:25:49.453Z,93576.91
2022-08-05T02:28:28.633Z,93573.78
2022-08-05T02:31:02.542Z,93580.09
2022-08-05T02:33:36.093Z,93579.03
2022-08-05T02:36:09.407Z,93577.94
2022-08-05T02:38:37.927Z,93576.84
2022-08-05T02:41:17.399Z,93581.59
2022-08-05T02:44:06.416Z,93585.28
2022-08-05T02:46:35.333Z,93580.47
2022-08-05T02:49:05.989Z,93584.03
2022-08-05T02:52:03.823Z,93582.00
2022-08-05T02:54:34.841Z,93578.78
2022-08-05T02:57:10.338Z,93586.06
2022-08-05T02:59:54.400Z,93581.00
2022-08-05T03:02:24.698Z,93584.22
2022-08-05T03:04:55.449Z,93585.09
2022-08-05T03:08:00.175Z,93594.94
2022-08-05T03:10:11.385Z,93588.63
2022-08-05T03:12:41.192Z,93585.44
2022-08-05T03:15:09.959Z,93584.00
2022-08-05T03:17:41.541Z,93581.44
2022-08-05T03:20:10.345Z,93584.63
2022-08-05T03:22:37.696Z,93591.84
2022-08-05T03:25:33.878Z,93593.16
2022-08-05T03:28:00.698Z,93588.19
2022-08-05T03:30:33.509Z,93588.16
2022-08-05T03:33:02.006Z,93591.41
2022-08-05T03:35:33.947Z,93584.00
2022-08-05T03:38:07.997Z,93580.28
2022-08-05T03:40:35.872Z,93577.19
2022-08-05T03:43:58.474Z,93587.50
2022-08-05T03:45:57.930Z,93585.84
2022-08-05T03:48:27.041Z,93585.22
2022-08-05T03:52:38.911Z,93588.19
2022-08-05T03:55:51.169Z,93593.31
2022-08-05T03:56:58.886Z,93590.13
2022-08-05T03:59:46.976Z,93584.66
2022-08-05T04:02:38.289Z,93588.22
2022-08-05T04:05:09.604Z,93581.88
2022-08-05T04:07:58.323Z,93584.84
2022-08-05T04:10:33.263Z,93582.84
2022-08-05T04:13:06.480Z,93579.75
2022-08-05T04:15:36.428Z,93579.06
2022-08-05T04:18:07.347Z,93584.88
2022-08-05T04:20:36.933Z,93585.97
2022-08-05T04:23:04.376Z,93582.59
2022-08-05T04:25:57.371Z,93582.03
2022-08-05T04:28:30.590Z,93585.78
2022-08-05T04:30:58.409Z,93584.94
2022-08-05T04:33:54.660Z,93577.91
2022-08-05T04:36:44.985Z,93579.44
2022-08-05T04:39:04.337Z,93576.88
2022-08-05T04:41:36.737Z,93581.03
2022-08-05T04:44:09.206Z,93575.84
2022-08-05T04:46:38.243Z,93579.72
2022-08-05T04:49:12.219Z,93574.16
2022-08-05T04:51:43.506Z,93568.97
2022-08-05T04:54:11.962Z,93574.06
2022-08-05T04:56:39.621Z,93572.25
2022-08-05T04:59:22.289Z,93570.38
2022-08-05T05:02:35.713Z,93566.19
2022-08-05T05:04:44.003Z,93561.72
2022-08-05T05:07:22.948Z,93559.09
2022-08-05T05:09:52.421Z,93560.97
2022-08-05T05:12:22.217Z,93557.00
2022-08-05T05:14:50.912Z,93552.78
2022-08-05T05:17:23.939Z,93549.84
2022-08-05T05:19:56.421Z,93559.59
2022-08-05T05:22:26.300Z,93554.31
2022-08-05T05:24:56.916Z,93547.97
2022-08-05T05:27:44.838Z,93547.03
2022-08-05T05:30:31.008Z,93547.56
2022-08-05T05:33:09.285Z,93548.69
2022-08-05T05:35:47.540Z,93546.84
2022-08-05T05:38:22.768Z,93542.00
2022-08-05T05:40:55.955Z,93536.97
2022-08-05T05:43:54.810Z,93534.06
2022-08-05T05:46:15.764Z,93539.47
2022-08-05T05:48:46.007Z,93538.88
2022-08-05T05:51:19.500Z,93536.81
2022-08-05T05:53:57.464Z,93537.97
2022-08-05T05:56:32.240Z,93540.09
2022-08-05T05:59:03.284Z,93538.84
2022-08-05T06:01:37.979Z,93534.84
2022-08-05T06:04:07.421Z,93534.75
2022-08-05T06:06:35.569Z,93532.78
2022-08-05T06:09:07.654Z,93528.31
2022-08-05T06:11:39.379Z,93533.12
2022-08-05T06:14:06.899Z,93533.56
2022-08-05T06:16:37.292Z,93528.31
2022-08-05T06:19:07.562Z,93524.84
2022-08-05T06:21:38.845Z,93533.56
2022-08-05T06:24:11.792Z,93534.34
2022-08-05T06:26:51.714Z,93529.63
2022-08-05T06:29:25.248Z,93522.13
2022-08-05T06:32:24.978Z,93526.00
2022-08-05T06:34:58.679Z,93525.44
2022-08-05T06:37:55.969Z,93520.63
2022-08-05T06:40:18.392Z,93523.16
2022-08-05T06:42:52.808Z,93523.03
2022-08-05T06:45:44.634Z,93515.59
2022-08-05T06:48:36.518Z,93513.69
2022-08-05T06:50:56.632Z,93519.00
2022-08-05T06:53:28.320Z,93513.59
2022-08-05T06:55:59.680Z,93509.66
2022-08-05T06:58:35.377Z,93505.91
2022-08-05T07:01:07.412Z,93508.75
2022-08-05T07:03:35.070Z,93503.53
2022-08-05T07:06:05.863Z,93499.81
2022-08-05T07:08:42.350Z,93501.56
2022-08-05T07:11:15.085Z,93507.09
2022-08-05T07:14:02.609Z,93500.91
2022-08-05T07:17:57.266Z,93499.87
2022-08-05T07:22:27.788Z,93499.47
2022-08-05T07:25:23.486Z,93499.97
2022-08-05T07:27:58.828Z,93502.62
2022-08-05T07:30:32.702Z,93500.09
2022-08-05T07:33:01.325Z,93496.31
2022-08-05T07:36:03.190Z,93501.84
2022-08-05T07:38:32.273Z,93497.53
2022-08-05T07:41:35.215Z,93492.91
2022-08-05T07:43:55.005Z,93492.37
2022-08-05T07:46:26.075Z,93485.97
2022-08-05T07:49:01.397Z,93490.03
2022-08-05T07:51:40.963Z,93492.16
2022-08-05T07:54:18.611Z,93492.34
2022-08-05T07:57:02.672Z,93491.22
2022-08-05T07:59:40.151Z,93494.06
2022-08-05T08:02:15.988Z,93486.38
2022-08-05T08:04:49.173Z,93488.38
2022-08-05T08:07:18.388Z,93490.34
2022-08-05T08:09:52.527Z,93485.47
2022-08-05T08:12:37.490Z,93486.66
2022-08-05T08:15:15.725Z,93486.91
2022-08-05T08:17:50.660Z,93484.47
2022-08-05T08:21:01.055Z,93479.47
2022-08-05T08:24:03.224Z,93475.09
2022-08-05T08:26:02.716Z,93479.91
2022-08-05T08:28:36.311Z,93476.84
2022-08-05T08:31:10.081Z,93471.69
2022-08-05T08:33:43.677Z,93470.09
2022-08-05T08:36:38.872Z,93470.00
2022-08-05T08:38:58.628Z,93467.91
2022-08-05T08:41:51.736Z,93460.78
2022-08-05T08:45:20.786Z,93465.12
2022-08-05T08:47:47.179Z,93463.56
2022-08-05T08:50:23.022Z,93468.00
2022-08-05T08:52:47.356Z,93459.69
2022-08-05T08:56:02.051Z,93469.44
2022-08-05T08:58:07.341Z,93469.37
2022-08-05T09:00:36.254Z,93459.22
2022-08-05T09:03:05.882Z,93468.06
2022-08-05T09:05:38.808Z,93470.06
2022-08-05T09:08:26.530Z,93470.94
2022-08-05T09:10:55.095Z,93471.31
2022-08-05T09:13:23.607Z,93471.38
2022-08-05T09:15:51.357Z,93463.81
2022-08-05T09:18:19.010Z,93457.31
2022-08-05T09:20:47.301Z,93457.66
2022-08-05T09:23:18.521Z,93452.44
2022-08-05T09:26:01.308Z,93463.47
2022-08-05T09:28:33.583Z,93453.47
2022-08-05T09:31:18.258Z,93447.97
2022-08-05T09:33:54.052Z,93439.97
2022-08-05T09:36:21.746Z,93438.84
2022-08-05T09:39:02.694Z,93439.72
2022-08-05T09:41:33.221Z,93442.81
2022-08-05T09:44:05.650Z,93448.84
2022-08-05T09:46:34.984Z,93442.81
2022-08-05T09:49:07.093Z,93444.22
2022-08-05T09:51:37.657Z,93435.38
2022-08-05T09:54:08.577Z,93436.09
2022-08-05T09:56:38.205Z,93440.84
2022-08-05T09:59:06.589Z,93435.78
2022-08-05T10:01:36.543Z,93432.19
2022-08-05T10:04:10.379Z,93432.84
2022-08-05T10:06:54.628Z,93425.44
2022-08-05T10:09:27.286Z,93420.31
2022-08-05T10:12:18.531Z,93424.94
2022-08-05T10:14:55.077Z,93416.91
2022-08-05T10:17:37.770Z,93406.63
2022-08-05T10:20:09.949Z,93410.44
2022-08-05T10:22:42.816Z,93411.31
2022-08-05T10:25:16.463Z,93406.75
2022-08-05T10:28:13.527Z,93401.97
2022-08-05T10:32:47.265Z,93412.22
2022-08-05T10:33:21.498Z,93406.97
2022-08-05T10:35:58.986Z,93399.87
2022-08-05T10:38:28.382Z,93401.34
2022-08-05T10:41:05.675Z,93406.72
2022-08-05T10:43:52.453Z,93400.37
2022-08-05T10:46:24.125Z,93394.53
2022-08-05T10:49:10.148Z,93397.94
2022-08-05T10:51:48.692Z,93387.03
2022-08-05T10:54:56.577Z,93387.75
2022-08-05T10:57:32.212Z,93378.50
2022-08-05T11:00:18.186Z,93381.94
2022-08-05T11:03:24.501Z,93378.25
2022-08-05T11:06:14.593Z,93373.94
2022-08-05T11:09:02.933Z,93369.22
2022-08-05T11:11:51.980Z,93371.75
2022-08-05T11:14:57.886Z,93374.06
2022-08-05T11:17:59.134Z,93373.41
2022-08-05T11:20:34.705Z,93363.31
2022-08-05T11:23:23.201Z,93358.38
2022-08-05T11:26:04.109Z,93349.66
2022-08-05T11:28:35.919Z,93355.53
2022-08-05T11:31:06.518Z,93354.50
2022-08-05T11:33:48.160Z,93351.91
2022-08-05T11:36:34.586Z,93350.75
2022-08-05T11:39:09.051Z,93351.88
2022-08-05T11:42:02.010Z,93338.03
2022-08-05T11:44:53.063Z,93345.88
2022-08-05T11:47:22.054Z,93349.41
2022-08-05T11:50:08.719Z,93341.75
2022-08-05T11:52:36.273Z,93347.97
2022-08-05T11:55:07.758Z,93347.87
2022-08-05T11:58:08.446Z,93348.38
2022-08-05T12:00:30.344Z,93343.88
2022-08-05T12:02:58.344Z,93339.41
2022-08-05T12:05:36.403Z,93338.84
2022-08-05T12:08:11.467Z,93348.28
2022-08-05T12:10:45.519Z,93344.91
2022-08-05T12:13:16.867Z,93350.00
2022-08-05T12:15:50.196Z,93349.91
2022-08-05T12:18:32.861Z,93347.44
2022-08-05T12:21:12.805Z,93343.41
2022-08-05T12:24:04.473Z,93347.13
2022-08-05T12:26:44.258Z,93342.25
2022-08-05T12:29:16.088Z,93345.47
2022-08-05T12:31:53.723Z,93339.81
2022-08-05T12:34:24.002Z,93341.44
2022-08-05T12:36:53.781Z,93336.56
2022-08-05T12:39:21.970Z,93328.91
2022-08-05T12:41:51.395Z,93326.72
2022-08-05T12:44:33.299Z,93333.06
2022-08-05T12:47:02.471Z,93315.19
2022-08-05T12:50:03.200Z,93329.09
2022-08-05T12:52:33.964Z,93314.47
2022-08-05T12:55:23.815Z,93311.47
2022-08-05T12:58:39.188Z,93300.03
2022-08-05T13:02:04.055Z,93287.22
2022-08-05T13:03:41.566Z,93297.38
2022-08-05T13:06:16.130Z,93296.03
2022-08-05T13:08:49.084Z,93290.12
2022-08-05T13:11:25.467Z,93286.09
2022-08-05T13:14:15.003Z,93285.22
2022-08-05T13:16:49.229Z,93287.94
2022-08-05T13:19:17.028Z,93285.25
2022-08-05T13:21:52.352Z,93284.28
2022-08-05T13:24:27.606Z,93286.31
2022-08-05T13:27:17.057Z,93279.22
2022-08-05T13:30:31.662Z,93275.84
2022-08-05T13:32:46.582Z,93273.16
2022-08-05T13:35:22.125Z,93287.47
2022-08-05T13:37:55.732Z,93274.72
2022-08-05T13:40:36.835Z,93280.38
2022-08-05T13:43:12.112Z,93281.34
2022-08-05T13:45:43.280Z,93272.69
2022-08-05T13:48:58.177Z,93266.81
2022-08-05T13:51:05.276Z,93266.94
2022-08-05T13:53:33.762Z,93261.53
2022-08-05T13:56:18.330Z,93261.56
2022-08-05T13:58:53.098Z,93235.88
2022-08-05T14:01:25.938Z,93239.19
2022-08-05T14:04:22.548Z,93251.34
2022-08-05T14:06:58.719Z,93274.38
2022-08-05T14:09:45.986Z,93267.22
2022-08-05T14:12:18.132Z,93271.94
2022-08-05T14:15:00.127Z,93274.97
2022-08-05T14:17:28.261Z,93271.06
2022-08-05T14:20:00.933Z,93268.13
2022-08-05T14:22:30.328Z,93263.13
2022-08-05T14:25:01.899Z,93263.50
2022-08-05T14:27:33.862Z,93268.03
2022-08-05T14:30:01.705Z,93258.91
2022-08-05T14:32:31.797Z,93256.37
2022-08-05T14:34:59.535Z,93254.91
2022-08-05T14:37:45.600Z,93251.06
2022-08-05T14:40:17.092Z,93256.97
2022-08-05T14:42:44.608Z,93253.94
2022-08-05T14:45:12.996Z,93247.59
2022-08-05T14:48:05.175Z,93250.94
2022-08-05T14:50:28.014Z,93249.91
2022-08-05T14:52:59.781Z,93249.47
2022-08-05T14:55:28.535Z,93243.34
2022-08-05T14:58:11.611Z,93245.06
2022-08-05T15:00:59.115Z,93247.19
2022-08-05T15:03:33.555Z,93239.69
2022-08-05T15:06:08.331Z,93238.00
2022-08-05T15:08:58.188Z,93244.78
2022-08-05T15:11:51.309Z,93237.25
2022-08-05T15:14:33.348Z,93234.06
2022-08-05T15:17:03.662Z,93227.03
2022-08-05T15:19:32.275Z,93236.34
2022-08-05T15:22:01.402Z,93226.13
2022-08-05T15:24:29.086Z,93230.47
2022-08-05T15:26:57.065Z,93220.38
2022-08-05T15:29:29.737Z,93217.19
2022-08-05T15:32:03.053Z,93221.38
2022-08-05T15:34:33.209Z,93220.06
2022-08-05T15:37:06.117Z,93217.94
2022-08-05T15:41:00.432Z,93219.28
2022-08-05T15:42:50.114Z,93214.81
2022-08-05T15:45:11.533Z,93215.03
2022-08-05T15:47:42.666Z,93213.03
2022-08-05T15:50:15.436Z,93219.91
2022-08-05T15:52:54.375Z,93208.41
2022-08-05T15:55:24.660Z,93208.06
2022-08-05T15:58:16.437Z,93215.19
2022-08-05T16:00:56.958Z,93208.44
2022-08-05T16:03:32.616Z,93208.00
2022-08-05T16:06:01.199Z,93213.88
2022-08-05T16:08:30.739Z,93211.91
2022-08-05T16:10:59.065Z,93205.75
2022-08-05T16:13:32.036Z,93209.13
2022-08-05T16:16:03.197Z,93209.91
2022-08-05T16:18:33.122Z,93213.50
2022-08-05T16:21:04.375Z,93217.66
2022-08-05T16:23:54.462Z,93210.13
2022-08-05T16:26:26.661Z,93220.53
2022-08-05T16:28:55.531Z,93218.84
2022-08-05T16:31:23.244Z,93218.59
2022-08-05T16:33:52.283Z,93218.69
2022-08-05T16:36:23.962Z,93222.19
2022-08-05T16:38:54.355Z,93223.56
2022-08-05T16:42:15.370Z,93229.47
2022-08-05T16:44:14.132Z,93222.81
2022-08-05T16:46:55.775Z,93229.91
2022-08-05T16:49:23.664Z,93236.09
2022-08-05T16:51:54.837Z,93236.47
2022-08-05T16:54:28.916Z,93231.84
2022-08-05T16:56:59.598Z,93238.72
2022-08-05T16:59:27.829Z,93241.66
2022-08-05T17:01:58.129Z,93244.50
2022-08-05T17:04:28.218Z,93247.09
2022-08-05T17:07:03.550Z,93244.94
2022-08-05T17:09:57.550Z,93248.09
2022-08-05T17:12:51.120Z,93242.00
2022-08-05T17:15:19.234Z,93240.53
2022-08-05T17:17:54.863Z,93243.06
2022-08-05T17:20:25.061Z,93249.19
2022-08-05T17:22:55.650Z,93255.47
2022-08-05T17:25:33.669Z,93253.41
2022-08-05T17:28:01.991Z,93258.34
2022-08-05T17:30:29.595Z,93261.63
2022-08-05T17:32:56.862Z,93261.50
2022-08-05T17:35:24.062Z,93262.94
2022-08-05T17:37:53.002Z,93260.72
2022-08-05T17:40:28.279Z,93262.09
2022-08-05T17:42:59.776Z,93265.66
2022-08-05T17:45:37.948Z,93267.38
2022-08-05T17:48:08.178Z,93269.81
2022-08-05T17:50:35.824Z,93272.59
2022-08-05T17:53:04.856Z,93270.22
2022-08-05T17:55:37.499Z,93271.75
2022-08-05T17:58:11.188Z,93274.44
2022-08-05T18:00:47.727Z,93286.28
2022-08-05T18:03:56.417Z,93270.47
2022-08-05T18:06:12.298Z,93280.72
2022-08-05T18:08:52.395Z,93286.50
2022-08-05T18:11:23.934Z,93295.19
2022-08-05T18:13:52.611Z,93288.94
2022-08-05T18:16:20.662Z,93293.84
2022-08-05T18:18:49.779Z,93298.19
2022-08-05T18:21:19.900Z,93295.81
2022-08-05T18:23:53.964Z,93305.78
2022-08-05T18:26:29.298Z,93306.66
2022-08-05T18:28:57.522Z,93308.44
2022-08-05T18:31:25.254Z,93310.22
2022-08-05T18:33:54.551Z,93306.44
2022-08-05T18:36:28.028Z,93310.91
2022-08-05T18:38:56.198Z,93311.41
2022-08-05T18:41:56.854Z,93315.03
2022-08-05T18:44:12.766Z,93319.63
2022-08-05T18:46:41.102Z,93314.38
2022-08-05T18:49:30.657Z,93322.69
2022-08-05T18:52:33.170Z,93314.09
2022-08-05T18:55:01.467Z,93326.03
2022-08-05T18:57:43.657Z,93323.38
2022-08-05T19:00:28.395Z,93326.19
2022-08-05T19:03:04.069Z,93327.75
2022-08-05T19:06:13.166Z,93329.50
2022-08-05T19:08:30.440Z,93337.19
2022-08-05T19:11:04.842Z,93334.19
2022-08-05T19:13:35.727Z,93322.44
2022-08-05T19:16:04.357Z,93333.25
2022-08-05T19:18:31.946Z,93340.78
2022-08-05T19:21:00.353Z,93332.13
2022-08-05T19:24:07.245Z,93337.09
2022-08-05T19:26:18.608Z,93347.50
2022-08-05T19:28:46.256Z,93355.53
2022-08-05T19:31:17.854Z,93344.22
2022-08-05T19:33:48.599Z,93340.91
2022-08-05T19:36:24.956Z,93332.94
2022-08-05T19:39:01.136Z,93331.00
2022-08-05T19:41:58.093Z,93338.56
2022-08-05T19:44:20.969Z,93341.78
2022-08-05T19:46:50.119Z,93335.78
2022-08-05T19:49:18.463Z,93341.28
2022-08-05T19:52:09.158Z,93329.78
2022-08-05T19:54:34.958Z,93336.19
2022-08-05T19:57:06.613Z,93343.94
2022-08-05T20:00:00.918Z,93343.59
2022-08-05T20:02:26.474Z,93346.44
2022-08-05T20:04:58.381Z,93348.91
2022-08-05T20:07:46.772Z,93341.53
2022-08-05T20:10:17.351Z,93342.41
2022-08-05T20:12:48.993Z,93343.91
2022-08-05T20:15:47.885Z,93349.47
2022-08-05T20:18:10.267Z,93345.28
2022-08-05T20:20:58.085Z,93342.09
2022-08-05T20:23:40.409Z,93340.72
2022-08-05T20:26:17.158Z,93343.50
2022-08-05T20:28:45.652Z,93343.88
2022-08-05T20:31:13.149Z,93345.16
2022-08-05T20:33:42.427Z,93341.34
2022-08-05T20:36:11.137Z,93342.28
2022-08-05T20:38:40.844Z,93339.97
2022-08-05T20:41:24.183Z,93339.06
2022-08-05T20:44:00.010Z,93340.81
2022-08-05T20:46:30.395Z,93341.59
2022-08-05T20:48:59.209Z,93350.50
2022-08-05T20:51:26.647Z,93345.81
2022-08-05T20:53:57.158Z,93349.34
2022-08-05T20:56:31.862Z,93344.19
2022-08-05T20:59:18.885Z,93344.31
2022-08-05T21:01:46.991Z,93343.25
2022-08-05T21:04:15.388Z,93349.66
2022-08-05T21:06:45.587Z,93345.50
2022-08-05T21:09:14.409Z,93346.91
2022-08-05T21:12:06.938Z,93346.47
2022-08-05T21:14:31.998Z,93340.56
2022-08-05T21:17:05.497Z,93330.66
2022-08-05T21:19:47.067Z,93341.09
2022-08-05T21:22:21.980Z,93344.63
2022-08-05T21:24:54.961Z,93340.06
2022-08-05T21:27:25.488Z,93344.00
2022-08-05T21:29:55.679Z,93339.28
2022-08-05T21:32:24.606Z,93344.09
2022-08-05T21:35:08.576Z,93340.81
2022-08-05T21:37:47.207Z,93347.97
2022-08-05T21:40:22.631Z,93343.03
2022-08-05T21:42:51.993Z,93347.31
2022-08-05T21:45:25.057Z,93348.38
2022-08-05T21:48:08.364Z,93354.22
2022-08-05T21:50:36.681Z,93356.72
2022-08-05T21:53:16.359Z,93358.81
2022-08-05T21:56:05.395Z,93351.84
2022-08-05T21:58:32.443Z,93345.78
2022-08-05T22:01:00.959Z,93357.91
2022-08-05T22:03:48.462Z,93352.56
2022-08-05T22:06:22.776Z,93346.53
2022-08-05T22:08:52.086Z,93355.06
2022-08-05T22:11:34.721Z,93354.50
2022-08-05T22:14:06.030Z,93351.12
2022-08-05T22:16:52.578Z,93350.41
2022-08-05T22:20:03.033Z,93352.84
2022-08-05T22:22:08.644Z,93348.97
2022-08-05T22:24:55.853Z,93347.84
2022-08-05T22:28:09.240Z,93352.47
2022-08-05T22:30:32.255Z,93350.50
2022-08-05T22:33:03.225Z,93342.56
2022-08-05T22:35:47.914Z,93343.47
2022-08-05T22:38:15.774Z,93344.53
2022-08-05T22:40:49.519Z,93332.84
2022-08-05T22:43:36.593Z,93340.06
2022-08-05T22:46:13.181Z,93337.94
2022-08-05T22:48:42.075Z,93340.50
2022-08-05T22:51:16.044Z,93337.78
2022-08-05T22:53:51.161Z,93334.00
2022-08-05T22:56:30.597Z,93328.69
2022-08-05T22:58:59.986Z,93336.50
2022-08-05T23:02:04.931Z,93334.78
2022-08-05T23:04:19.388Z,93337.50
2022-08-05T23:06:47.768Z,93339.91
2022-08-05T23:09:52.723Z,93328.22
2022-08-05T23:12:03.179Z,93326.47
2022-08-05T23:14:32.670Z,93323.22
2022-08-05T23:17:24.012Z,93326.53
2022-08-05T23:19:56.351Z,93333.25
2022-08-05T23:22:27.378Z,93326.00
2022-08-05T23:24:55.791Z,93322.47
2022-08-05T23:27:24.111Z,93319.47
2022-08-05T23:29:56.471Z,93323.50
2022-08-05T23:32:24.360Z,93320.44
2022-08-05T23:34:54.537Z,93322.44
2022-08-05T23:37:22.041Z,93324.78
2022-08-05T23:39:54.002Z,93329.59
2022-08-05T23:42:28.965Z,93334.78
2022-08-05T23:44:57.205Z,93325.19
2022-08-05T23:47:25.321Z,93329.56
2022-08-05T23:49:55.587Z,93333.84
2022-08-05T23:52:26.691Z,93328.34
2022-08-05T23:55:07.146Z,93333.44
2022-08-05T23:57:36.682Z,93335.78
